Time;durP1;ratioP1;P1;durP2;ratioP2;P2;SDS_P1;SDS_P2;PMS_P1;PMS_P2;Temp;Humidity;BMP_temperature;BMP_pressure;BME280_temperature;BME280_humidity;BME280_pressure;Samples;Min_cycle;Max_cycle;Signal;HPM_P1;HPM_P2
2023/04/15 00:00:17;;;;;;;35.00;19.70;;;;;;;8.17;93.90;100426.19;2081684;28;20217;-71
2023/04/15 00:01:22;;;;;;;35.08;18.58;;;;;;;8.22;93.98;100423.50;2073803;28;20226;-71
2023/04/15 00:02:30;;;;;;;37.90;19.92;;;;;;;8.22;93.91;100415.44;2068028;28;20207;-72
2023/04/15 00:03:33;;;;;;;31.80;18.27;;;;;;;8.20;93.78;100431.81;2055896;28;20214;-72
2023/04/15 00:04:36;;;;;;;37.13;19.08;;;;;;;8.24;93.40;100442.78;2081791;28;20308;-72
2023/04/15 00:05:37;;;;;;;36.17;18.50;;;;;;;8.22;93.41;100434.19;2090345;28;20205;-72
2023/04/15 00:06:42;;;;;;;31.45;17.73;;;;;;;8.24;93.20;100426.72;2089705;28;20209;-72
2023/04/15 00:07:46;;;;;;;30.55;17.45;;;;;;;8.24;93.39;100421.34;2090289;28;20201;-72
2023/04/15 00:08:50;;;;;;;32.67;18.30;;;;;;;8.28;93.11;100428.59;2088972;28;20217;-71
2023/04/15 00:09:56;;;;;;;32.85;17.77;;;;;;;8.30;93.02;100441.72;2082030;28;20210;-72
2023/04/15 00:11:01;;;;;;;33.13;17.45;;;;;;;8.31;92.45;100427.25;2082677;28;20368;-71
2023/04/15 00:12:05;;;;;;;33.65;17.60;;;;;;;8.29;92.17;100429.38;2081895;28;20244;-71
2023/04/15 00:13:09;;;;;;;34.40;16.23;;;;;;;8.28;91.99;100422.44;2074137;28;20234;-71
2023/04/15 00:14:14;;;;;;;35.83;17.42;;;;;;;8.31;91.76;100422.69;2081855;28;20287;-71
2023/04/15 00:15:18;;;;;;;31.25;17.08;;;;;;;8.25;92.04;100422.97;2082042;28;20228;-73
2023/04/15 00:16:20;;;;;;;27.90;15.90;;;;;;;8.29;91.81;100424.03;2073414;28;20268;-72
2023/04/15 00:17:22;;;;;;;29.13;17.27;;;;;;;8.28;91.96;100427.78;2072595;28;20265;-72
2023/04/15 00:18:28;;;;;;;31.92;16.75;;;;;;;8.32;91.67;100431.53;2064535;28;20208;-72
2023/04/15 00:19:30;;;;;;;30.20;16.45;;;;;;;8.33;91.60;100442.00;2065916;28;20216;-73
2023/04/15 00:20:32;;;;;;;25.50;15.75;;;;;;;8.33;91.37;100428.59;2073205;28;20269;-73
2023/04/15 00:21:36;;;;;;;28.17;16.08;;;;;;;8.31;91.10;100433.41;2066242;28;20314;-72
2023/04/15 00:22:38;;;;;;;30.50;16.40;;;;;;;8.33;91.49;100433.16;2054279;28;20338;-72
2023/04/15 00:23:40;;;;;;;29.70;16.35;;;;;;;8.32;90.99;100439.56;2073933;28;20316;-71
2023/04/15 00:24:46;;;;;;;25.95;16.02;;;;;;;8.34;91.22;100434.75;2074118;28;21060;-71
2023/04/15 00:25:51;;;;;;;28.20;16.48;;;;;;;8.34;90.66;100429.41;2074528;28;20242;-74
2023/04/15 00:26:58;;;;;;;27.77;16.70;;;;;;;8.33;90.82;100425.13;2074240;28;20211;-74
2023/04/15 00:28:00;;;;;;;32.65;16.88;;;;;;;8.34;90.63;100421.38;2079761;28;20221;-74
2023/04/15 00:29:02;;;;;;;28.58;16.05;;;;;;;8.37;90.91;100420.84;2089682;28;20288;-74
2023/04/15 00:30:08;;;;;;;26.77;14.98;;;;;;;8.38;91.10;100427.00;2081869;28;20206;-74
2023/04/15 00:31:13;;;;;;;25.55;14.88;;;;;;;8.37;90.65;100420.84;2074420;28;20218;-74
2023/04/15 00:32:15;;;;;;;26.58;16.10;;;;;;;8.38;90.27;100422.47;2082704;28;20316;-73
2023/04/15 00:33:17;;;;;;;25.50;15.20;;;;;;;8.39;90.36;100415.25;2061512;28;20330;-72
2023/04/15 00:34:21;;;;;;;28.42;15.13;;;;;;;8.41;90.25;100427.28;2082038;28;20236;-72
2023/04/15 00:35:23;;;;;;;26.52;15.70;;;;;;;8.42;90.10;100418.19;2089836;28;20302;-71
2023/04/15 00:36:30;;;;;;;28.83;16.10;;;;;;;8.43;90.23;100435.06;2081627;28;20210;-71
2023/04/15 00:37:35;;;;;;;29.85;16.38;;;;;;;8.43;89.70;100449.25;2083258;28;20210;-71
2023/04/15 00:38:41;;;;;;;31.70;17.27;;;;;;;8.39;89.48;100429.44;2098219;28;20229;-72
2023/04/15 00:39:50;;;;;;;27.60;15.95;;;;;;;8.38;89.41;100422.47;2088414;28;21062;-72
2023/04/15 00:40:52;;;;;;;26.58;15.75;;;;;;;8.37;89.22;100420.84;2088630;28;20311;-72
2023/04/15 00:41:54;;;;;;;31.60;16.77;;;;;;;8.37;89.46;100426.19;2080258;28;20205;-71
2023/04/15 00:42:58;;;;;;;27.38;15.60;;;;;;;8.36;89.89;100420.03;2088772;28;20280;-71
2023/04/15 00:44:03;;;;;;;27.60;15.85;;;;;;;8.39;89.60;100415.25;2088762;28;20204;-71
2023/04/15 00:45:10;;;;;;;29.15;16.42;;;;;;;8.36;89.74;100428.06;2081822;28;20310;-71
2023/04/15 00:46:16;;;;;;;27.33;15.85;;;;;;;8.33;89.35;100422.44;2088570;28;20338;-70
2023/04/15 00:47:18;;;;;;;26.33;15.55;;;;;;;8.31;89.94;100411.19;2088765;28;20348;-70
2023/04/15 00:48:23;;;;;;;27.75;15.52;;;;;;;8.35;89.78;100422.97;2063907;28;20263;-71
2023/04/15 00:49:26;;;;;;;28.35;16.23;;;;;;;8.35;90.06;100429.16;2065348;28;20247;-71
2023/04/15 00:50:27;;;;;;;26.05;15.90;;;;;;;8.36;89.95;100433.44;2079402;28;21175;-72
2023/04/15 00:51:34;;;;;;;26.92;15.07;;;;;;;8.36;89.88;100443.34;2063983;28;20243;-70
2023/04/15 00:52:39;;;;;;;25.67;15.77;;;;;;;8.35;89.69;100439.88;2061696;28;20550;-71
2023/04/15 00:53:40;;;;;;;29.55;15.88;;;;;;;8.32;89.44;100424.31;2064704;28;21098;-71
2023/04/15 00:54:42;;;;;;;28.00;15.70;;;;;;;8.34;89.50;100432.88;2063938;28;20204;-70
2023/04/15 00:55:44;;;;;;;27.73;15.75;;;;;;;8.34;89.66;100421.38;2080078;28;20201;-71
2023/04/15 00:56:48;;;;;;;26.85;15.68;;;;;;;8.36;89.26;100425.38;2071915;28;20261;-71
2023/04/15 00:57:49;;;;;;;28.77;15.68;;;;;;;8.36;89.59;100432.63;2080408;28;20923;-71
2023/04/15 00:58:51;;;;;;;28.08;14.82;;;;;;;8.35;89.72;100429.16;2073254;28;20265;-71
2023/04/15 00:59:54;;;;;;;27.60;15.65;;;;;;;8.35;89.52;100417.59;2056076;28;20075;-71
2023/04/15 01:00:59;;;;;;;24.17;14.13;;;;;;;8.30;90.01;100422.97;2069964;28;20211;-71
2023/04/15 01:02:07;;;;;;;28.90;15.65;;;;;;;8.31;89.64;100420.03;2080440;28;20241;-71
2023/04/15 01:03:11;;;;;;;25.23;15.15;;;;;;;8.34;89.52;100426.72;2078232;28;21066;-71
2023/04/15 01:04:15;;;;;;;25.92;16.08;;;;;;;8.32;89.67;100418.97;2060524;28;20244;-73
2023/04/15 01:05:19;;;;;;;24.52;14.85;;;;;;;8.33;89.67;100422.44;2064689;28;21049;-72
2023/04/15 01:06:21;;;;;;;26.67;15.02;;;;;;;8.33;89.66;100422.44;2055392;28;20217;-73
2023/04/15 01:07:22;;;;;;;30.38;15.70;;;;;;;8.32;89.75;100418.97;2080761;28;21165;-73
2023/04/15 01:08:27;;;;;;;26.83;15.35;;;;;;;8.30;89.71;100422.97;2095901;28;20255;-73
2023/04/15 01:09:32;;;;;;;27.67;15.55;;;;;;;8.31;89.70;100411.19;2088314;28;20209;-73
2023/04/15 01:10:38;;;;;;;30.10;16.63;;;;;;;8.31;89.79;100421.91;2080924;28;20221;-73
2023/04/15 01:11:45;;;;;;;27.80;15.40;;;;;;;8.27;90.39;100423.50;2073630;28;20241;-72
2023/04/15 01:12:52;;;;;;;30.08;16.52;;;;;;;8.28;90.16;100427.78;2082019;28;20233;-73
2023/04/15 01:13:57;;;;;;;31.65;16.52;;;;;;;8.21;90.44;100444.13;2088577;28;21126;-73
2023/04/15 01:15:02;;;;;;;26.45;14.73;;;;;;;8.24;90.61;100411.44;2088553;28;20328;-73
2023/04/15 01:16:08;;;;;;;30.02;15.70;;;;;;;8.27;90.61;100415.47;2088543;28;20220;-73
2023/04/15 01:17:17;;;;;;;27.02;15.60;;;;;;;8.28;90.64;100417.06;2088217;28;20208;-73
2023/04/15 01:18:22;;;;;;;26.27;15.90;;;;;;;8.26;89.98;100424.56;2089024;28;21119;-73
2023/04/15 01:19:24;;;;;;;29.08;15.38;;;;;;;8.26;90.22;100411.16;2088063;28;20280;-73
2023/04/15 01:20:28;;;;;;;29.20;15.13;;;;;;;8.28;90.08;100411.72;2088672;28;20272;-72
2023/04/15 01:21:35;;;;;;;25.65;15.93;;;;;;;8.25;90.06;100415.72;2080783;28;20230;-73
2023/04/15 01:22:40;;;;;;;28.83;15.48;;;;;;;8.26;90.36;100414.66;2080561;28;20206;-72
2023/04/15 01:23:47;;;;;;;24.30;14.40;;;;;;;8.29;89.88;100410.63;2079942;28;21041;-72
2023/04/15 01:25:00;;;;;;;26.08;14.43;;;;;;;8.27;89.97;100410.91;2087590;28;20308;-72
2023/04/15 01:26:03;;;;;;;25.55;14.45;;;;;;;8.30;90.12;100407.69;2096482;28;20258;-72
2023/04/15 01:27:06;;;;;;;27.48;15.52;;;;;;;8.26;90.30;100408.50;2080954;28;20331;-72
2023/04/15 01:28:08;;;;;;;26.30;14.07;;;;;;;8.30;90.06;100414.94;2080567;28;20217;-71
2023/04/15 01:29:18;;;;;;;28.50;14.95;;;;;;;8.28;89.94;100406.34;2089333;28;20256;-71
2023/04/15 01:30:20;;;;;;;24.45;13.88;;;;;;;8.29;89.90;100416.00;2088702;28;20237;-71
2023/04/15 01:31:27;;;;;;;27.00;15.10;;;;;;;8.29;90.21;100413.31;2081163;28;20237;-71
2023/04/15 01:32:29;;;;;;;24.27;14.85;;;;;;;8.28;90.30;100401.81;2074078;28;20210;-71
2023/04/15 01:33:52;;;;;;;30.10;15.27;;;;;;;8.30;90.40;100409.59;2064785;28;20359;-74
2023/04/15 01:35:13;;;;;;;26.50;13.60;;;;;;;8.30;89.75;100415.75;2076200;28;20202;-73
2023/04/15 01:36:22;;;;;;;23.88;14.32;;;;;;;8.32;89.46;100413.59;2074067;28;20242;-73
2023/04/15 01:37:28;;;;;;;24.92;13.90;;;;;;;8.32;89.70;100402.91;2074872;28;20034;-73
2023/04/15 01:38:32;;;;;;;22.55;13.30;;;;;;;8.32;89.28;100412.78;2071035;28;21132;-73
2023/04/15 01:39:35;;;;;;;27.30;13.75;;;;;;;8.34;89.22;100407.97;2066651;28;20271;-73
2023/04/15 01:40:37;;;;;;;22.92;13.80;;;;;;;8.36;89.42;100413.88;2073615;28;21159;-73
2023/04/15 01:41:41;;;;;;;25.95;14.43;;;;;;;8.34;88.89;100416.00;2081880;28;21000;-73
2023/04/15 01:42:42;;;;;;;23.48;13.75;;;;;;;8.35;89.20;100425.63;2081560;28;20240;-73
2023/04/15 01:43:44;;;;;;;21.98;13.45;;;;;;;8.31;89.21;100422.69;2081319;28;20313;-73
2023/04/15 01:44:48;;;;;;;23.40;13.77;;;;;;;8.30;89.13;100425.66;2089357;28;21145;-72
2023/04/15 01:45:50;;;;;;;20.30;12.93;;;;;;;8.30;89.19;100413.06;2089965;28;20334;-73
2023/04/15 01:46:53;;;;;;;26.05;14.35;;;;;;;8.31;88.74;100416.53;2081264;28;20202;-72
2023/04/15 01:48:00;;;;;;;24.00;13.45;;;;;;;8.30;88.88;100409.59;2074044;28;20203;-73
2023/04/15 01:49:02;;;;;;;22.33;12.40;;;;;;;8.31;88.53;100420.03;2075023;28;20257;-73
2023/04/15 01:50:08;;;;;;;20.95;12.75;;;;;;;8.34;89.19;100416.00;2089764;28;20350;-73
2023/04/15 01:51:10;;;;;;;23.73;13.68;;;;;;;8.29;89.16;100430.22;2089313;28;20209;-73
2023/04/15 01:52:12;;;;;;;18.38;11.60;;;;;;;8.26;89.27;100435.28;2073383;28;20687;-72
2023/04/15 01:53:18;;;;;;;21.38;13.35;;;;;;;8.27;88.90;100421.63;2073640;28;20285;-72
2023/04/15 01:54:26;;;;;;;23.23;13.23;;;;;;;8.27;88.99;100437.69;2074486;28;20222;-69
2023/04/15 01:55:30;;;;;;;23.05;13.48;;;;;;;8.25;89.22;100412.25;2083317;28;21072;-70
2023/04/15 01:56:32;;;;;;;20.48;12.95;;;;;;;8.27;89.27;100431.53;2088479;28;20234;-70
2023/04/15 01:57:33;;;;;;;22.52;13.05;;;;;;;8.31;89.08;100421.91;2088262;28;20233;-69
2023/04/15 01:58:40;;;;;;;23.02;12.70;;;;;;;8.32;89.35;100429.69;2070677;28;20210;-70
2023/04/15 01:59:46;;;;;;;23.80;13.43;;;;;;;8.25;89.19;100425.63;2075487;28;20225;-69
2023/04/15 02:00:52;;;;;;;24.33;13.98;;;;;;;8.27;89.10;100426.19;2074508;28;20235;-70
2023/04/15 02:01:59;;;;;;;24.33;13.07;;;;;;;8.25;89.01;100431.78;2082909;28;20284;-70
2023/04/15 02:03:05;;;;;;;26.45;14.13;;;;;;;8.23;88.93;100425.09;2097221;28;21052;-71
2023/04/15 02:04:15;;;;;;;23.50;13.93;;;;;;;8.25;89.24;100439.03;2085435;28;20240;-71
2023/04/15 02:05:18;;;;;;;22.33;12.00;;;;;;;8.24;88.59;100442.78;2097467;28;20201;-71
2023/04/15 02:06:22;;;;;;;24.05;13.40;;;;;;;8.26;89.38;100430.75;2097622;28;20309;-72
2023/04/15 02:07:31;;;;;;;24.58;12.93;;;;;;;8.27;89.35;100426.97;2089670;28;20237;-71
2023/04/15 02:08:35;;;;;;;22.73;12.27;;;;;;;8.30;88.80;100445.22;2097482;28;20314;-71
2023/04/15 02:09:39;;;;;;;21.70;13.18;;;;;;;8.30;88.67;100449.75;2089329;28;20279;-72
2023/04/15 02:10:42;;;;;;;28.13;12.98;;;;;;;8.31;88.73;100422.69;2082323;28;20210;-73
2023/04/15 02:11:43;;;;;;;23.73;13.02;;;;;;;8.33;88.58;100441.19;2072957;28;20235;-71
2023/04/15 02:12:45;;;;;;;20.85;12.05;;;;;;;8.32;88.76;100431.53;2081495;28;20066;-72
2023/04/15 02:13:49;;;;;;;24.90;13.45;;;;;;;8.35;88.55;100422.97;2081574;28;20217;-72
2023/04/15 02:14:54;;;;;;;21.70;13.05;;;;;;;8.29;88.70;100435.56;2082142;28;20206;-72
2023/04/15 02:16:00;;;;;;;22.92;13.50;;;;;;;8.28;88.48;100417.06;2082163;28;20230;-72
2023/04/15 02:17:07;;;;;;;21.23;12.63;;;;;;;8.32;88.83;100428.84;2083403;28;20361;-72
2023/04/15 02:18:08;;;;;;;22.00;12.20;;;;;;;8.32;88.93;100450.28;2083012;28;21053;-72
2023/04/15 02:19:12;;;;;;;21.05;12.23;;;;;;;8.35;88.53;100426.47;2074993;28;20285;-72
2023/04/15 02:20:17;;;;;;;21.55;12.20;;;;;;;8.33;88.79;100411.72;2083362;28;20347;-72
2023/04/15 02:21:21;;;;;;;26.20;13.25;;;;;;;8.34;89.00;100426.72;2099235;28;20220;-72
2023/04/15 02:22:23;;;;;;;25.70;12.98;;;;;;;8.36;88.56;100416.56;2098808;28;20338;-72
2023/04/15 02:23:28;;;;;;;23.40;14.32;;;;;;;8.34;88.69;100416.00;2082753;28;20221;-72
2023/04/15 02:24:32;;;;;;;21.42;12.13;;;;;;;8.33;88.39;100427.81;2083329;28;20214;-72
2023/04/15 02:25:37;;;;;;;21.13;12.43;;;;;;;8.33;88.81;100422.44;2074730;28;20225;-73
2023/04/15 02:26:40;;;;;;;21.75;12.85;;;;;;;8.32;88.84;100418.13;2076001;28;21099;-72
2023/04/15 02:27:43;;;;;;;21.83;12.02;;;;;;;8.27;88.78;100432.34;2090904;28;20229;-72
2023/04/15 02:28:44;;;;;;;21.77;12.43;;;;;;;8.27;88.75;100439.56;2090621;28;20224;-73
2023/04/15 02:29:52;;;;;;;21.50;12.52;;;;;;;8.29;89.06;100426.72;2072384;28;21053;-72
2023/04/15 02:30:56;;;;;;;21.92;13.32;;;;;;;8.29;89.07;100445.47;2081782;28;20232;-73
2023/04/15 02:31:58;;;;;;;20.85;12.65;;;;;;;8.29;89.13;100424.03;2081413;28;21066;-72
2023/04/15 02:33:06;;;;;;;19.92;12.07;;;;;;;8.26;89.03;100416.53;2065318;28;20297;-72
2023/04/15 02:34:07;;;;;;;22.42;12.48;;;;;;;8.28;89.38;100443.84;2071817;28;20224;-72
2023/04/15 02:35:12;;;;;;;21.45;13.57;;;;;;;8.25;89.34;100431.00;2091383;28;20408;-72
2023/04/15 02:36:16;;;;;;;20.48;12.45;;;;;;;8.24;89.19;100427.50;2099403;28;20220;-72
2023/04/15 02:37:22;;;;;;;24.17;12.75;;;;;;;8.28;88.93;100427.78;2090806;28;20213;-73
2023/04/15 02:38:26;;;;;;;22.25;12.98;;;;;;;8.29;89.41;100418.66;2082960;28;20240;-71
2023/04/15 02:39:27;;;;;;;23.42;12.02;;;;;;;8.29;88.95;100424.84;2083148;28;20368;-72
2023/04/15 02:40:34;;;;;;;21.30;12.93;;;;;;;8.29;89.16;100426.72;2083138;28;20238;-72
2023/04/15 02:41:42;;;;;;;19.27;12.70;;;;;;;8.29;89.41;100429.38;2091026;28;20414;-72
2023/04/15 02:42:46;;;;;;;23.10;13.60;;;;;;;8.27;89.30;100431.53;2090909;28;20916;-71
2023/04/15 02:43:55;;;;;;;22.35;12.93;;;;;;;8.25;88.79;100437.16;2074769;28;20031;-72
2023/04/15 02:45:00;;;;;;;19.55;12.30;;;;;;;8.22;89.46;100428.84;2077233;28;20416;-72
2023/04/15 02:46:11;;;;;;;24.17;12.40;;;;;;;8.25;89.52;100433.66;2075390;28;21190;-71
2023/04/15 02:47:15;;;;;;;;;;;;;;;8.26;89.12;100435.28;2084692;28;20214;-72
2023/04/15 02:48:20;;;;;;;23.42;13.05;;;;;;;8.24;89.15;100432.06;2098887;28;19917;-72
2023/04/15 02:49:25;;;;;;;21.65;12.18;;;;;;;8.25;89.57;100439.03;2098476;28;20225;-73
2023/04/15 02:50:31;;;;;;;26.05;12.23;;;;;;;8.27;89.00;100426.19;2099234;28;21031;-73
2023/04/15 02:51:32;;;;;;;19.42;12.15;;;;;;;8.29;89.27;100429.38;2090699;28;20209;-72
2023/04/15 02:52:34;;;;;;;22.73;12.98;;;;;;;8.29;89.50;100443.59;2074508;28;21060;-72
2023/04/15 02:53:36;;;;;;;22.65;12.73;;;;;;;8.30;89.30;100436.38;2074445;28;20261;-71
2023/04/15 02:54:41;;;;;;;22.27;11.82;;;;;;;8.33;89.64;100435.84;2074890;28;20237;-71
2023/04/15 02:55:46;;;;;;;20.98;12.73;;;;;;;8.30;88.87;100431.81;2076095;28;20231;-72
2023/04/15 02:56:47;;;;;;;22.40;12.52;;;;;;;8.31;88.92;100427.25;2083122;28;20344;-71
2023/04/15 02:57:51;;;;;;;21.98;13.32;;;;;;;8.32;88.70;100424.31;2082575;28;20201;-71
2023/04/15 02:58:56;;;;;;;21.90;13.35;;;;;;;8.29;88.81;100424.84;2082608;28;21149;-71
2023/04/15 03:00:00;;;;;;;23.20;12.70;;;;;;;8.25;88.71;100431.00;2083338;28;20206;-71
2023/04/15 03:03:18;;;;;;;22.35;12.25;;;;;;;8.32;89.02;100431.53;2091296;28;20446;-71
2023/04/15 03:04:20;;;;;;;24.20;12.77;;;;;;;8.30;89.06;100428.34;2077390;28;21181;-71
2023/04/15 03:05:24;;;;;;;22.88;13.48;;;;;;;8.29;88.93;100429.38;2081087;28;20225;-71
2023/04/15 03:06:26;;;;;;;24.60;13.30;;;;;;;8.32;88.85;100434.22;2064701;28;20212;-71
2023/04/15 03:07:28;;;;;;;26.10;13.73;;;;;;;8.33;88.94;100435.84;2073923;28;20501;-71
2023/04/15 03:08:32;;;;;;;21.90;13.50;;;;;;;8.25;88.82;100429.13;2081757;28;21082;-73
2023/04/15 03:09:38;;;;;;;25.10;13.88;;;;;;;8.17;88.67;100429.66;2074737;28;20230;-71
2023/04/15 03:10:45;;;;;;;24.38;14.05;;;;;;;8.18;89.17;100435.81;2082194;28;20238;-71
2023/04/15 03:11:53;;;;;;;20.65;12.70;;;;;;;8.18;89.63;100433.13;2066795;28;20211;-71
2023/04/15 03:12:57;;;;;;;22.27;13.35;;;;;;;8.21;89.76;100435.28;2067845;28;20238;-71
2023/04/15 03:14:03;;;;;;;24.30;13.57;;;;;;;8.22;89.34;100424.28;2082417;28;20316;-71
2023/04/15 03:15:11;;;;;;;21.00;13.18;;;;;;;8.25;89.31;100439.03;2082705;28;21071;-71
2023/04/15 03:16:20;;;;;;;21.67;13.32;;;;;;;8.26;89.14;100424.56;2082167;28;20288;-71
2023/04/15 03:17:22;;;;;;;25.85;13.52;;;;;;;8.22;89.56;100437.69;2066611;28;20215;-71
2023/04/15 03:18:24;;;;;;;25.45;14.27;;;;;;;8.22;89.13;100432.31;2058016;28;20216;-71
2023/04/15 03:19:28;;;;;;;22.13;12.15;;;;;;;8.25;89.16;100428.31;2075062;28;20241;-71
2023/04/15 03:20:36;;;;;;;22.95;13.52;;;;;;;8.23;89.55;100442.00;2073978;28;20235;-71
2023/04/15 03:21:38;;;;;;;24.17;13.10;;;;;;;8.20;89.36;100437.16;2084512;28;20292;-71
2023/04/15 03:22:39;;;;;;;24.48;14.57;;;;;;;8.16;89.73;100436.06;2089646;28;20205;-71
2023/04/15 03:23:42;;;;;;;23.33;14.05;;;;;;;8.12;89.89;100441.16;2081116;28;20209;-71
2023/04/15 03:24:45;;;;;;;26.13;14.32;;;;;;;8.16;89.83;100437.94;2081043;28;20300;-71
2023/04/15 03:25:54;;;;;;;25.52;14.43;;;;;;;8.20;89.86;100441.72;2073066;28;21259;-71
2023/04/15 03:26:57;;;;;;;24.20;14.30;;;;;;;8.21;90.07;100436.09;2083493;28;20222;-71
2023/04/15 03:28:01;;;;;;;24.67;14.48;;;;;;;8.19;89.84;100426.69;2090407;28;21040;-71
2023/04/15 03:29:02;;;;;;;27.08;14.93;;;;;;;8.13;89.99;100441.94;2082105;28;20218;-71
2023/04/15 03:30:10;;;;;;;27.60;14.23;;;;;;;8.12;89.79;100435.78;2082370;28;20206;-71
2023/04/15 03:31:15;;;;;;;27.08;15.57;;;;;;;8.12;89.95;100449.19;2082398;28;20234;-71
2023/04/15 03:32:17;;;;;;;26.50;15.07;;;;;;;8.13;89.98;100440.09;2074790;28;20313;-71
2023/04/15 03:33:19;;;;;;;24.33;14.82;;;;;;;8.18;90.08;100438.50;2073882;28;20257;-71
2023/04/15 03:34:21;;;;;;;24.85;14.93;;;;;;;8.14;89.95;100446.25;2071585;28;20238;-72
2023/04/15 03:35:23;;;;;;;23.83;14.10;;;;;;;8.13;89.79;100437.41;2067374;28;21065;-71
2023/04/15 03:36:27;;;;;;;27.40;15.25;;;;;;;8.16;90.40;100432.59;2082304;28;21024;-72
2023/04/15 03:37:32;;;;;;;25.35;14.77;;;;;;;8.16;89.95;100451.34;2090497;28;20220;-71
2023/04/15 03:38:38;;;;;;;25.52;16.05;;;;;;;8.16;89.92;100441.41;2082189;28;21006;-71
2023/04/15 03:39:40;;;;;;;28.13;14.98;;;;;;;8.21;90.17;100433.41;2066391;28;20218;-72
2023/04/15 03:40:47;;;;;;;24.33;14.85;;;;;;;8.24;89.84;100443.59;2066099;28;20227;-71
2023/04/15 03:41:51;;;;;;;25.55;14.52;;;;;;;8.23;90.02;100439.31;2082014;28;20217;-71
2023/04/15 03:42:58;;;;;;;23.17;14.52;;;;;;;8.23;90.02;100430.44;2082179;28;20307;-71
2023/04/15 03:44:02;;;;;;;26.13;14.57;;;;;;;8.31;89.81;100454.84;2074544;28;20203;-72
2023/04/15 03:45:08;;;;;;;26.27;14.90;;;;;;;8.32;89.32;100439.56;2074703;28;20207;-72
2023/04/15 03:46:10;;;;;;;29.02;15.70;;;;;;;8.29;89.39;100443.59;2081906;28;20244;-72
2023/04/15 03:47:15;;;;;;;28.02;16.27;;;;;;;8.28;89.44;100435.81;2082445;28;20202;-72
2023/04/15 03:48:17;;;;;;;25.42;15.15;;;;;;;8.28;89.59;100441.19;2090239;28;20205;-72
2023/04/15 03:49:22;;;;;;;25.05;15.30;;;;;;;8.31;89.01;100437.97;2082240;28;20257;-72
2023/04/15 03:50:26;;;;;;;27.63;15.30;;;;;;;8.32;89.30;100435.03;2073910;28;20202;-72
2023/04/15 03:51:31;;;;;;;26.08;16.20;;;;;;;8.32;89.04;100439.56;2067021;28;20935;-72
2023/04/15 03:52:35;;;;;;;24.30;14.80;;;;;;;8.29;89.11;100440.09;2082112;28;20316;-72
2023/04/15 03:53:40;;;;;;;25.55;14.23;;;;;;;8.31;89.58;100443.31;2082148;28;20217;-72
2023/04/15 03:54:42;;;;;;;28.13;15.32;;;;;;;8.31;89.54;100448.69;2082169;28;20210;-72
2023/04/15 03:55:44;;;;;;;24.10;14.38;;;;;;;8.33;89.06;100442.00;2082761;28;20210;-74
2023/04/15 03:56:53;;;;;;;26.25;14.88;;;;;;;8.37;88.67;100431.53;2090183;28;20310;-73
2023/04/15 03:57:57;;;;;;;27.70;15.93;;;;;;;8.38;89.08;100437.69;2081378;28;20964;-74
2023/04/15 03:59:01;;;;;;;24.50;14.25;;;;;;;8.36;89.00;100432.63;2073431;28;20206;-74
2023/04/15 04:00:09;;;;;;;31.13;15.13;;;;;;;8.38;88.91;100438.53;2072971;28;20359;-74
2023/04/15 04:01:15;;;;;;;28.67;15.45;;;;;;;8.45;88.77;100439.09;2082316;28;20960;-74
2023/04/15 04:02:21;;;;;;;23.60;14.07;;;;;;;8.46;89.01;100431.84;2089678;28;20229;-71
2023/04/15 04:03:23;;;;;;;25.00;14.38;;;;;;;8.44;88.70;100436.66;2090318;28;20987;-70
2023/04/15 04:04:25;;;;;;;25.10;15.23;;;;;;;8.43;88.84;100441.22;2081931;28;20315;-71
2023/04/15 04:05:35;;;;;;;27.27;14.73;;;;;;;8.42;88.56;100444.16;2072160;28;20230;-70
2023/04/15 04:06:37;;;;;;;26.80;15.13;;;;;;;8.40;88.52;100436.41;2082124;28;20322;-71
2023/04/15 04:07:38;;;;;;;24.70;14.43;;;;;;;8.45;88.58;100439.09;2073891;28;21069;-71
2023/04/15 04:08:42;;;;;;;24.52;14.13;;;;;;;8.45;88.26;100439.09;2065935;28;20227;-71
2023/04/15 04:09:46;;;;;;;24.55;14.48;;;;;;;8.47;88.42;100438.81;2074559;28;20230;-71
2023/04/15 04:10:53;;;;;;;26.33;15.48;;;;;;;8.48;87.90;100441.25;2081900;28;20312;-72
2023/04/15 04:11:55;;;;;;;25.80;15.57;;;;;;;8.45;87.96;100443.63;2090202;28;20221;-72
2023/04/15 04:13:01;;;;;;;26.52;14.73;;;;;;;8.45;88.46;100441.78;2089412;28;20216;-72
2023/04/15 04:14:06;;;;;;;23.55;14.25;;;;;;;8.49;88.19;100442.03;2082214;28;20245;-73
2023/04/15 04:15:10;;;;;;;27.80;14.40;;;;;;;8.51;88.44;100443.41;2081951;28;20387;-72
2023/04/15 04:16:14;;;;;;;25.75;14.68;;;;;;;8.50;88.11;100441.75;2074652;28;20316;-72
2023/04/15 04:17:23;;;;;;;24.10;14.45;;;;;;;8.51;88.21;100443.41;2080397;28;20216;-72
2023/04/15 04:18:32;;;;;;;22.75;14.32;;;;;;;8.46;88.36;100447.94;2080833;28;20210;-71
2023/04/15 04:19:37;;;;;;;;;;;;;;;8.45;88.39;100452.50;2072903;28;20333;-70
2023/04/15 04:20:43;;;;;;;26.27;13.73;;;;;;;8.43;88.45;100446.59;2073326;28;19925;-70
2023/04/15 04:21:45;;;;;;;23.95;14.35;;;;;;;8.40;88.84;100441.75;2074334;28;20254;-71
2023/04/15 04:22:47;;;;;;;27.42;16.13;;;;;;;8.38;88.69;100443.06;2073756;28;20425;-70
2023/04/15 04:23:49;;;;;;;28.95;15.10;;;;;;;8.36;88.68;100444.16;2075653;28;20233;-70
2023/04/15 04:24:52;;;;;;;24.60;15.52;;;;;;;8.39;88.96;100445.53;2089773;28;20256;-70
2023/04/15 04:25:57;;;;;;;25.98;14.70;;;;;;;8.45;89.01;100439.09;2089885;28;20229;-69
2023/04/15 04:27:03;;;;;;;25.77;14.10;;;;;;;8.42;88.99;100445.00;2081700;28;20320;-70
2023/04/15 04:28:07;;;;;;;26.35;14.90;;;;;;;8.38;88.99;100443.91;2081950;28;20229;-70
2023/04/15 04:29:09;;;;;;;26.83;15.23;;;;;;;8.36;89.22;100449.50;2074248;28;20246;-70
2023/04/15 04:30:14;;;;;;;26.63;15.10;;;;;;;8.38;89.02;100445.75;2074463;28;20211;-70
2023/04/15 04:31:17;;;;;;;28.60;14.88;;;;;;;8.36;89.03;100454.06;2074437;28;20989;-70
2023/04/15 04:32:26;;;;;;;28.52;14.90;;;;;;;8.38;89.36;100443.91;2074554;28;20911;-70
2023/04/15 04:33:33;;;;;;;29.10;15.93;;;;;;;8.38;89.29;100451.09;2081826;28;20214;-70
2023/04/15 04:34:35;;;;;;;26.60;15.07;;;;;;;8.38;89.07;100449.25;2081913;28;20232;-70
2023/04/15 04:35:39;;;;;;;25.73;14.52;;;;;;;8.42;89.40;100455.72;2069716;28;20237;-71
2023/04/15 04:36:44;;;;;;;24.77;15.52;;;;;;;8.45;89.06;100447.13;2080875;28;20198;-70
2023/04/15 04:37:49;;;;;;;24.95;13.93;;;;;;;8.44;89.37;100453.53;2074083;28;20230;-70
2023/04/15 04:38:53;;;;;;;26.48;14.77;;;;;;;8.43;89.16;100446.59;2081332;28;21054;-70
2023/04/15 04:39:58;;;;;;;26.38;14.52;;;;;;;8.46;89.03;100445.25;2082163;28;21149;-70
2023/04/15 04:41:00;;;;;;;28.35;15.07;;;;;;;8.45;88.72;100449.81;2081689;28;20210;-70
2023/04/15 04:42:07;;;;;;;24.73;14.40;;;;;;;8.47;88.96;100453.00;2081658;28;21097;-70
2023/04/15 04:43:09;;;;;;;28.25;14.70;;;;;;;8.47;89.22;100453.00;2081891;28;20202;-70
2023/04/15 04:44:13;;;;;;;26.00;14.35;;;;;;;8.45;88.92;100447.13;2089899;28;21035;-70
2023/04/15 04:45:17;;;;;;;24.83;14.35;;;;;;;8.47;88.94;100439.63;2081949;28;20217;-71
2023/04/15 04:46:22;;;;;;;25.92;14.75;;;;;;;8.49;89.17;100466.16;2074070;28;20226;-71
2023/04/15 04:47:24;;;;;;;24.75;15.07;;;;;;;8.47;88.94;100454.91;2073993;28;20246;-71
2023/04/15 04:48:28;;;;;;;32.72;15.48;;;;;;;8.42;89.02;100450.34;2081607;28;20280;-72
2023/04/15 04:49:35;;;;;;;24.13;15.02;;;;;;;8.34;89.15;100446.28;2069376;28;20254;-71
2023/04/15 04:50:43;;;;;;;25.35;14.52;;;;;;;8.38;89.82;100448.41;2066384;28;21026;-72
2023/04/15 04:51:47;;;;;;;26.30;14.23;;;;;;;8.43;89.71;100456.50;2074105;28;20986;-72
